sensor_id;sensor_type;location;lat;lon;timestamp;P1;P2;P0
26720;PMS1003;15950;51.112;6.966;2023-04-15T00:00:45;000;000;
26720;PMS1003;15950;51.112;6.966;2023-04-15T00:03:45;003;002;
26720;PMS1003;15950;51.112;6.966;2023-04-15T00:09:45;002;002;
26720;PMS1003;15950;51.112;6.966;2023-04-15T00:12:45;006;004;
26720;PMS1003;15950;51.112;6.966;2023-04-15T00:15:45;002;001;
26720;PMS1003;15950;51.112;6.966;2023-04-15T00:18:45;005;003;
26720;PMS1003;15950;51.112;6.966;2023-04-15T00:21:45;003;002;
26720;PMS1003;15950;51.112;6.966;2023-04-15T00:24:45;006;004;
26720;PMS1003;15950;51.112;6.966;2023-04-15T00:27:45;002;001;
26720;PMS1003;15950;51.112;6.966;2023-04-15T00:30:45;007;006;
26720;PMS1003;15950;51.112;6.966;2023-04-15T00:33:45;003;002;
26720;PMS1003;15950;51.112;6.966;2023-04-15T00:36:45;002;001;
26720;PMS1003;15950;51.112;6.966;2023-04-15T00:39:45;004;003;
26720;PMS1003;15950;51.112;6.966;2023-04-15T00:42:45;002;001;
26720;PMS1003;15950;51.112;6.966;2023-04-15T00:45:45;002;001;
26720;PMS1003;15950;51.112;6.966;2023-04-15T00:48:45;002;002;
26720;PMS1003;15950;51.112;6.966;2023-04-15T00:51:45;003;002;
26720;PMS1003;15950;51.112;6.966;2023-04-15T00:54:45;003;003;
26720;PMS1003;15950;51.112;6.966;2023-04-15T00:57:45;004;003;
26720;PMS1003;15950;51.112;6.966;2023-04-15T01:00:45;000;000;
26720;PMS1003;15950;51.112;6.966;2023-04-15T01:03:45;000;000;
26720;PMS1003;15950;51.112;6.966;2023-04-15T01:06:45;003;002;
26720;PMS1003;15950;51.112;6.966;2023-04-15T01:09:45;000;000;
26720;PMS1003;15950;51.112;6.966;2023-04-15T01:12:45;000;000;
26720;PMS1003;15950;51.112;6.966;2023-04-15T01:15:45;003;002;
26720;PMS1003;15950;51.112;6.966;2023-04-15T01:18:45;000;000;
26720;PMS1003;15950;51.112;6.966;2023-04-15T01:21:45;000;000;
26720;PMS1003;15950;51.112;6.966;2023-04-15T01:24:47;000;000;
26720;PMS1003;15950;51.112;6.966;2023-04-15T01:27:45;002;001;
26720;PMS1003;15950;51.112;6.966;2023-04-15T01:30:45;000;000;
26720;PMS1003;15950;51.112;6.966;2023-04-15T01:33:45;001;001;
26720;PMS1003;15950;51.112;6.966;2023-04-15T01:36:45;002;001;
26720;PMS1003;15950;51.112;6.966;2023-04-15T01:39:45;002;001;
26720;PMS1003;15950;51.112;6.966;2023-04-15T01:42:45;001;001;
26720;PMS1003;15950;51.112;6.966;2023-04-15T01:45:45;000;000;
26720;PMS1003;15950;51.112;6.966;2023-04-15T01:48:45;005;003;
26720;PMS1003;15950;51.112;6.966;2023-04-15T01:51:45;002;001;
26720;PMS1003;15950;51.112;6.966;2023-04-15T01:54:45;001;001;
26720;PMS1003;15950;51.112;6.966;2023-04-15T01:57:45;000;000;
26720;PMS1003;15950;51.112;6.966;2023-04-15T02:00:45;002;002;
26720;PMS1003;15950;51.112;6.966;2023-04-15T02:03:45;002;002;
26720;PMS1003;15950;51.112;6.966;2023-04-15T02:06:45;002;001;
26720;PMS1003;15950;51.112;6.966;2023-04-15T02:09:45;002;001;
26720;PMS1003;15950;51.112;6.966;2023-04-15T02:12:45;000;000;
26720;PMS1003;15950;51.112;6.966;2023-04-15T02:15:48;002;001;
26720;PMS1003;15950;51.112;6.966;2023-04-15T02:18:45;000;000;
26720;PMS1003;15950;51.112;6.966;2023-04-15T02:21:45;000;000;
26720;PMS1003;15950;51.112;6.966;2023-04-15T02:24:45;003;002;
26720;PMS1003;15950;51.112;6.966;2023-04-15T02:27:45;000;000;
26720;PMS1003;15950;51.112;6.966;2023-04-15T02:30:46;002;001;
26720;PMS1003;15950;51.112;6.966;2023-04-15T02:33:45;002;001;
26720;PMS1003;15950;51.112;6.966;2023-04-15T02:36:45;000;000;
26720;PMS1003;15950;51.112;6.966;2023-04-15T02:39:45;002;001;
26720;PMS1003;15950;51.112;6.966;2023-04-15T02:42:45;000;000;
26720;PMS1003;15950;51.112;6.966;2023-04-15T02:45:45;000;000;
26720;PMS1003;15950;51.112;6.966;2023-04-15T02:48:45;002;001;
26720;PMS1003;15950;51.112;6.966;2023-04-15T02:51:45;002;001;
26720;PMS1003;15950;51.112;6.966;2023-04-15T02:54:45;000;000;
26720;PMS1003;15950;51.112;6.966;2023-04-15T02:57:45;002;001;
26720;PMS1003;15950;51.112;6.966;2023-04-15T03:00:45;000;000;
26720;PMS1003;15950;51.112;6.966;2023-04-15T03:03:45;000;000;
26720;PMS1003;15950;51.112;6.966;2023-04-15T03:06:45;001;001;
26720;PMS1003;15950;51.112;6.966;2023-04-15T03:09:45;003;002;
26720;PMS1003;15950;51.112;6.966;2023-04-15T03:12:45;000;000;
26720;PMS1003;15950;51.112;6.966;2023-04-15T03:15:45;002;001;
26720;PMS1003;15950;51.112;6.966;2023-04-15T03:18:45;000;000;
26720;PMS1003;15950;51.112;6.966;2023-04-15T03:21:45;001;001;
26720;PMS1003;15950;51.112;6.966;2023-04-15T03:24:45;002;002;
26720;PMS1003;15950;51.112;6.966;2023-04-15T03:27:45;000;000;
26720;PMS1003;15950;51.112;6.966;2023-04-15T03:30:45;001;001;
26720;PMS1003;15950;51.112;6.966;2023-04-15T03:33:45;002;001;
26720;PMS1003;15950;51.112;6.966;2023-04-15T03:36:45;001;001;
26720;PMS1003;15950;51.112;6.966;2023-04-15T03:39:45;002;001;
26720;PMS1003;15950;51.112;6.966;2023-04-15T03:42:45;002;001;
26720;PMS1003;15950;51.112;6.966;2023-04-15T03:45:45;000;000;
26720;PMS1003;15950;51.112;6.966;2023-04-15T03:48:45;003;002;
26720;PMS1003;15950;51.112;6.966;2023-04-15T03:51:45;002;001;
26720;PMS1003;15950;51.112;6.966;2023-04-15T03:54:45;002;002;
26720;PMS1003;15950;51.112;6.966;2023-04-15T03:57:45;003;002;
26720;PMS1003;15950;51.112;6.966;2023-04-15T04:00:45;002;002;
26720;PMS1003;15950;51.112;6.966;2023-04-15T04:03:45;000;000;
26720;PMS1003;15950;51.112;6.966;2023-04-15T04:06:45;004;003;
26720;PMS1003;15950;51.112;6.966;2023-04-15T04:09:45;002;001;
26720;PMS1003;15950;51.112;6.966;2023-04-15T04:12:45;002;001;
26720;PMS1003;15950;51.112;6.966;2023-04-15T04:15:45;002;001;
26720;PMS1003;15950;51.112;6.966;2023-04-15T04:18:45;000;000;
26720;PMS1003;15950;51.112;6.966;2023-04-15T04:21:45;002;002;
26720;PMS1003;15950;51.112;6.966;2023-04-15T04:24:45;003;002;
26720;PMS1003;15950;51.112;6.966;2023-04-15T04:27:45;002;001;
26720;PMS1003;15950;51.112;6.966;2023-04-15T04:30:45;003;002;
26720;PMS1003;15950;51.112;6.966;2023-04-15T04:33:45;004;003;
26720;PMS1003;15950;51.112;6.966;2023-04-15T04:36:45;004;003;
26720;PMS1003;15950;51.112;6.966;2023-04-15T04:39:45;000;000;
26720;PMS1003;15950;51.112;6.966;2023-04-15T04:42:45;004;003;
26720;PMS1003;15950;51.112;6.966;2023-04-15T04:45:45;003;003;
26720;PMS1003;15950;51.112;6.966;2023-04-15T04:48:45;007;005;
26720;PMS1003;15950;51.112;6.966;2023-04-15T04:51:45;002;001;
26720;PMS1003;15950;51.112;6.966;2023-04-15T04:54:45;005;004;
26720;PMS1003;15950;51.112;6.966;2023-04-15T04:57:45;005;004;
26720;PMS1003;15950;51.112;6.966;2023-04-15T05:00:45;005;003;
26720;PMS1003;15950;51.112;6.966;2023-04-15T05:03:45;003;002;
26720;PMS1003;15950;51.112;6.966;2023-04-15T05:06:45;006;006;
26720;PMS1003;15950;51.112;6.966;2023-04-15T05:09:45;004;003;
26720;PMS1003;15950;51.112;6.966;2023-04-15T05:12:45;003;002;
26720;PMS1003;15950;51.112;6.966;2023-04-15T05:15:44;007;005;
26720;PMS1003;15950;51.112;6.966;2023-04-15T05:18:44;007;005;
26720;PMS1003;15950;51.112;6.966;2023-04-15T05:21:45;003;002;
26720;PMS1003;15950;51.112;6.966;2023-04-15T05:24:44;006;004;
26720;PMS1003;15950;51.112;6.966;2023-04-15T05:27:44;005;003;
26720;PMS1003;15950;51.112;6.966;2023-04-15T05:30:44;004;003;
26720;PMS1003;15950;51.112;6.966;2023-04-15T05:33:44;003;002;
26720;PMS1003;15950;51.112;6.966;2023-04-15T05:36:44;007;005;
26720;PMS1003;15950;51.112;6.966;2023-04-15T05:39:45;004;003;
26720;PMS1003;15950;51.112;6.966;2023-04-15T05:42:44;005;004;
26720;PMS1003;15950;51.112;6.966;2023-04-15T05:45:44;003;002;
26720;PMS1003;15950;51.112;6.966;2023-04-15T05:48:44;001;001;
26720;PMS1003;15950;51.112;6.966;2023-04-15T05:51:46;003;002;
26720;PMS1003;15950;51.112;6.966;2023-04-15T05:54:44;003;003;
26720;PMS1003;15950;51.112;6.966;2023-04-15T05:57:44;006;005;
26720;PMS1003;15950;51.112;6.966;2023-04-15T06:00:44;006;004;
26720;PMS1003;15950;51.112;6.966;2023-04-15T06:03:44;002;001;
26720;PMS1003;15950;51.112;6.966;2023-04-15T06:06:44;005;003;
26720;PMS1003;15950;51.112;6.966;2023-04-15T06:09:44;003;002;
26720;PMS1003;15950;51.112;6.966;2023-04-15T06:12:44;005;004;
26720;PMS1003;15950;51.112;6.966;2023-04-15T06:15:44;005;004;
26720;PMS1003;15950;51.112;6.966;2023-04-15T06:18:44;006;005;
26720;PMS1003;15950;51.112;6.966;2023-04-15T06:21:44;006;004;
26720;PMS1003;15950;51.112;6.966;2023-04-15T06:24:44;005;003;
26720;PMS1003;15950;51.112;6.966;2023-04-15T06:27:44;005;003;
26720;PMS1003;15950;51.112;6.966;2023-04-15T06:30:44;007;006;
26720;PMS1003;15950;51.112;6.966;2023-04-15T06:33:44;005;003;
26720;PMS1003;15950;51.112;6.966;2023-04-15T06:36:44;007;005;
26720;PMS1003;15950;51.112;6.966;2023-04-15T06:39:44;007;005;
26720;PMS1003;15950;51.112;6.966;2023-04-15T06:42:44;010;007;
26720;PMS1003;15950;51.112;6.966;2023-04-15T06:45:44;013;009;
26720;PMS1003;15950;51.112;6.966;2023-04-15T06:48:44;010;007;
26720;PMS1003;15950;51.112;6.966;2023-04-15T06:51:44;009;006;
26720;PMS1003;15950;51.112;6.966;2023-04-15T06:54:44;007;005;
26720;PMS1003;15950;51.112;6.966;2023-04-15T06:57:44;006;005;
26720;PMS1003;15950;51.112;6.966;2023-04-15T07:00:44;009;006;
26720;PMS1003;15950;51.112;6.966;2023-04-15T07:03:44;010;009;
26720;PMS1003;15950;51.112;6.966;2023-04-15T07:06:44;008;006;
26720;PMS1003;15950;51.112;6.966;2023-04-15T07:09:44;005;004;
26720;PMS1003;15950;51.112;6.966;2023-04-15T07:12:44;006;004;
26720;PMS1003;15950;51.112;6.966;2023-04-15T07:15:44;005;003;
26720;PMS1003;15950;51.112;6.966;2023-04-15T07:18:44;003;002;
26720;PMS1003;15950;51.112;6.966;2023-04-15T07:21:45;002;001;
26720;PMS1003;15950;51.112;6.966;2023-04-15T07:24:45;004;004;
26720;PMS1003;15950;51.112;6.966;2023-04-15T07:27:44;003;002;
26720;PMS1003;15950;51.112;6.966;2023-04-15T07:30:44;006;004;
26720;PMS1003;15950;51.112;6.966;2023-04-15T07:33:44;003;003;
26720;PMS1003;15950;51.112;6.966;2023-04-15T07:36:44;000;000;
26720;PMS1003;15950;51.112;6.966;2023-04-15T07:39:44;003;002;
26720;PMS1003;15950;51.112;6.966;2023-04-15T07:42:44;000;000;
26720;PMS1003;15950;51.112;6.966;2023-04-15T07:45:44;000;000;
26720;PMS1003;15950;51.112;6.966;2023-04-15T07:48:44;003;003;
26720;PMS1003;15950;51.112;6.966;2023-04-15T07:51:44;000;000;
26720;PMS1003;15950;51.112;6.966;2023-04-15T07:54:44;000;000;
26720;PMS1003;15950;51.112;6.966;2023-04-15T07:57:44;000;000;
26720;PMS1003;15950;51.112;6.966;2023-04-15T08:00:44;000;000;
26720;PMS1003;15950;51.112;6.966;2023-04-15T08:03:44;000;000;
26720;PMS1003;15950;51.112;6.966;2023-04-15T08:06:44;003;002;
26720;PMS1003;15950;51.112;6.966;2023-04-15T08:09:44;003;002;
26720;PMS1003;15950;51.112;6.966;2023-04-15T08:12:44;003;002;
26720;PMS1003;15950;51.112;6.966;2023-04-15T08:15:44;003;002;
26720;PMS1003;15950;51.112;6.966;2023-04-15T08:18:45;002;001;
26720;PMS1003;15950;51.112;6.966;2023-04-15T08:21:44;000;000;
26720;PMS1003;15950;51.112;6.966;2023-04-15T08:24:44;001;001;
26720;PMS1003;15950;51.112;6.966;2023-04-15T08:27:44;000;000;
26720;PMS1003;15950;51.112;6.966;2023-04-15T08:30:44;000;000;
26720;PMS1003;15950;51.112;6.966;2023-04-15T08:33:44;002;001;
26720;PMS1003;15950;51.112;6.966;2023-04-15T08:36:44;000;000;
26720;PMS1003;15950;51.112;6.966;2023-04-15T08:39:44;001;001;
26720;PMS1003;15950;51.112;6.966;2023-04-15T08:42:45;000;000;
26720;PMS1003;15950;51.112;6.966;2023-04-15T08:45:44;002;002;
26720;PMS1003;15950;51.112;6.966;2023-04-15T08:48:44;000;000;
26720;PMS1003;15950;51.112;6.966;2023-04-15T08:51:44;002;001;
26720;PMS1003;15950;51.112;6.966;2023-04-15T08:54:44;000;000;
26720;PMS1003;15950;51.112;6.966;2023-04-15T08:57:44;000;000;
26720;PMS1003;15950;51.112;6.966;2023-04-15T09:00:44;002;001;
26720;PMS1003;15950;51.112;6.966;2023-04-15T09:03:45;000;000;
26720;PMS1003;15950;51.112;6.966;2023-04-15T09:06:45;005;004;
26720;PMS1003;15950;51.112;6.966;2023-04-15T09:09:44;000;000;
26720;PMS1003;15950;51.112;6.966;2023-04-15T09:12:44;000;000;
26720;PMS1003;15950;51.112;6.966;2023-04-15T09:15:44;006;004;
26720;PMS1003;15950;51.112;6.966;2023-04-15T09:18:44;002;001;
26720;PMS1003;15950;51.112;6.966;2023-04-15T09:21:46;003;002;
26720;PMS1003;15950;51.112;6.966;2023-04-15T09:24:44;003;003;
26720;PMS1003;15950;51.112;6.966;2023-04-15T09:27:48;002;001;
26720;PMS1003;15950;51.112;6.966;2023-04-15T09:30:44;003;002;
26720;PMS1003;15950;51.112;6.966;2023-04-15T09:39:48;005;003;
26720;PMS1003;15950;51.112;6.966;2023-04-15T09:48:44;002;002;
26720;PMS1003;15950;51.112;6.966;2023-04-15T09:51:44;003;002;
26720;PMS1003;15950;51.112;6.966;2023-04-15T09:54:44;002;001;
26720;PMS1003;15950;51.112;6.966;2023-04-15T09:57:45;002;001;
26720;PMS1003;15950;51.112;6.966;2023-04-15T10:00:45;003;002;
26720;PMS1003;15950;51.112;6.966;2023-04-15T10:03:44;003;002;
26720;PMS1003;15950;51.112;6.966;2023-04-15T10:06:44;004;003;
26720;PMS1003;15950;51.112;6.966;2023-04-15T10:09:45;002;001;
26720;PMS1003;15950;51.112;6.966;2023-04-15T10:12:44;005;003;
26720;PMS1003;15950;51.112;6.966;2023-04-15T10:15:47;003;002;
26720;PMS1003;15950;51.112;6.966;2023-04-15T10:18:47;002;002;
26720;PMS1003;15950;51.112;6.966;2023-04-15T10:21:44;003;003;
26720;PMS1003;15950;51.112;6.966;2023-04-15T10:24:44;004;003;
26720;PMS1003;15950;51.112;6.966;2023-04-15T10:27:44;002;001;
26720;PMS1003;15950;51.112;6.966;2023-04-15T10:30:44;003;002;
26720;PMS1003;15950;51.112;6.966;2023-04-15T10:33:44;003;002;
26720;PMS1003;15950;51.112;6.966;2023-04-15T10:36:44;005;004;
26720;PMS1003;15950;51.112;6.966;2023-04-15T10:39:44;004;003;
26720;PMS1003;15950;51.112;6.966;2023-04-15T10:42:44;002;001;
26720;PMS1003;15950;51.112;6.966;2023-04-15T10:45:44;002;001;
26720;PMS1003;15950;51.112;6.966;2023-04-15T10:51:45;003;002;
26720;PMS1003;15950;51.112;6.966;2023-04-15T10:54:44;003;002;
26720;PMS1003;15950;51.112;6.966;2023-04-15T10:57:44;002;001;
26720;PMS1003;15950;51.112;6.966;2023-04-15T11:00:48;002;002;
26720;PMS1003;15950;51.112;6.966;2023-04-15T11:03:44;001;001;
26720;PMS1003;15950;51.112;6.966;2023-04-15T11:06:44;002;001;
26720;PMS1003;15950;51.112;6.966;2023-04-15T11:09:44;000;000;
26720;PMS1003;15950;51.112;6.966;2023-04-15T11:12:45;001;001;
26720;PMS1003;15950;51.112;6.966;2023-04-15T11:15:45;000;000;
26720;PMS1003;15950;51.112;6.966;2023-04-15T11:21:44;002;002;
26720;PMS1003;15950;51.112;6.966;2023-04-15T11:24:47;000;000;
26720;PMS1003;15950;51.112;6.966;2023-04-15T11:27:44;002;001;
26720;PMS1003;15950;51.112;6.966;2023-04-15T11:30:44;003;002;
26720;PMS1003;15950;51.112;6.966;2023-04-15T11:36:44;003;002;
26720;PMS1003;15950;51.112;6.966;2023-04-15T11:39:44;005;005;
26720;PMS1003;15950;51.112;6.966;2023-04-15T11:42:44;005;004;
26720;PMS1003;15950;51.112;6.966;2023-04-15T11:45:49;008;007;
26720;PMS1003;15950;51.112;6.966;2023-04-15T11:48:45;006;004;
26720;PMS1003;15950;51.112;6.966;2023-04-15T11:51:44;007;006;
26720;PMS1003;15950;51.112;6.966;2023-04-15T11:54:44;007;005;
26720;PMS1003;15950;51.112;6.966;2023-04-15T11:57:44;008;006;
26720;PMS1003;15950;51.112;6.966;2023-04-15T12:01:06;009;007;
26720;PMS1003;15950;51.112;6.966;2023-04-15T12:03:45;013;010;
26720;PMS1003;15950;51.112;6.966;2023-04-15T12:06:44;012;009;
26720;PMS1003;15950;51.112;6.966;2023-04-15T12:09:44;015;012;
26720;PMS1003;15950;51.112;6.966;2023-04-15T12:12:48;007;007;
26720;PMS1003;15950;51.112;6.966;2023-04-15T12:15:44;007;005;
26720;PMS1003;15950;51.112;6.966;2023-04-15T12:21:45;012;010;
26720;PMS1003;15950;51.112;6.966;2023-04-15T12:24:44;006;004;
26720;PMS1003;15950;51.112;6.966;2023-04-15T12:27:49;008;006;
26720;PMS1003;15950;51.112;6.966;2023-04-15T12:30:48;009;006;
26720;PMS1003;15950;51.112;6.966;2023-04-15T12:33:46;007;005;
26720;PMS1003;15950;51.112;6.966;2023-04-15T12:36:44;008;007;
26720;PMS1003;15950;51.112;6.966;2023-04-15T12:39:45;010;007;
26720;PMS1003;15950;51.112;6.966;2023-04-15T12:42:44;005;003;
26720;PMS1003;15950;51.112;6.966;2023-04-15T12:45:44;006;004;
26720;PMS1003;15950;51.112;6.966;2023-04-15T12:48:44;009;006;
26720;PMS1003;15950;51.112;6.966;2023-04-15T12:51:44;007;005;
26720;PMS1003;15950;51.112;6.966;2023-04-15T12:54:44;005;004;
26720;PMS1003;15950;51.112;6.966;2023-04-15T12:57:44;007;005;
26720;PMS1003;15950;51.112;6.966;2023-04-15T13:00:44;006;004;
26720;PMS1003;15950;51.112;6.966;2023-04-15T13:03:44;006;004;
26720;PMS1003;15950;51.112;6.966;2023-04-15T13:06:44;007;005;
26720;PMS1003;15950;51.112;6.966;2023-04-15T13:09:44;006;004;
26720;PMS1003;15950;51.112;6.966;2023-04-15T13:12:44;005;003;
26720;PMS1003;15950;51.112;6.966;2023-04-15T13:15:44;004;003;
26720;PMS1003;15950;51.112;6.966;2023-04-15T13:18:44;005;003;
26720;PMS1003;15950;51.112;6.966;2023-04-15T13:21:44;004;004;
26720;PMS1003;15950;51.112;6.966;2023-04-15T13:24:44;006;004;
26720;PMS1003;15950;51.112;6.966;2023-04-15T13:27:44;005;004;
26720;PMS1003;15950;51.112;6.966;2023-04-15T13:30:44;002;001;
26720;PMS1003;15950;51.112;6.966;2023-04-15T13:33:44;003;002;
26720;PMS1003;15950;51.112;6.966;2023-04-15T13:36:44;002;001;
26720;PMS1003;15950;51.112;6.966;2023-04-15T13:39:44;002;001;
26720;PMS1003;15950;51.112;6.966;2023-04-15T13:42:44;001;001;
26720;PMS1003;15950;51.112;6.966;2023-04-15T13:45:45;002;001;
26720;PMS1003;15950;51.112;6.966;2023-04-15T13:48:44;002;001;
26720;PMS1003;15950;51.112;6.966;2023-04-15T13:51:44;002;001;
26720;PMS1003;15950;51.112;6.966;2023-04-15T13:54:44;002;001;
26720;PMS1003;15950;51.112;6.966;2023-04-15T13:57:44;004;004;
26720;PMS1003;15950;51.112;6.966;2023-04-15T14:00:44;003;002;
26720;PMS1003;15950;51.112;6.966;2023-04-15T14:03:44;003;002;
26720;PMS1003;15950;51.112;6.966;2023-04-15T14:06:44;002;002;
26720;PMS1003;15950;51.112;6.966;2023-04-15T14:09:44;003;002;
26720;PMS1003;15950;51.112;6.966;2023-04-15T14:12:44;002;001;
26720;PMS1003;15950;51.112;6.966;2023-04-15T14:15:44;000;000;
26720;PMS1003;15950;51.112;6.966;2023-04-15T14:18:44;002;001;
26720;PMS1003;15950;51.112;6.966;2023-04-15T14:21:44;000;000;
26720;PMS1003;15950;51.112;6.966;2023-04-15T14:24:44;002;001;
26720;PMS1003;15950;51.112;6.966;2023-04-15T14:27:44;003;002;
26720;PMS1003;15950;51.112;6.966;2023-04-15T14:30:44;003;003;
26720;PMS1003;15950;51.112;6.966;2023-04-15T14:33:44;003;002;
26720;PMS1003;15950;51.112;6.966;2023-04-15T14:36:44;001;001;
26720;PMS1003;15950;51.112;6.966;2023-04-15T14:39:44;003;002;
26720;PMS1003;15950;51.112;6.966;2023-04-15T14:42:44;005;003;
26720;PMS1003;15950;51.112;6.966;2023-04-15T14:45:44;004;003;
26720;PMS1003;15950;51.112;6.966;2023-04-15T14:48:44;003;002;
26720;PMS1003;15950;51.112;6.966;2023-04-15T14:51:44;002;001;
26720;PMS1003;15950;51.112;6.966;2023-04-15T14:54:44;002;001;
26720;PMS1003;15950;51.112;6.966;2023-04-15T14:57:44;001;001;
26720;PMS1003;15950;51.112;6.966;2023-04-15T15:00:44;002;002;
26720;PMS1003;15950;51.112;6.966;2023-04-15T15:03:44;005;003;
26720;PMS1003;15950;51.112;6.966;2023-04-15T15:06:44;005;003;
26720;PMS1003;15950;51.112;6.966;2023-04-15T15:09:44;003;002;
26720;PMS1003;15950;51.112;6.966;2023-04-15T15:12:44;000;000;
26720;PMS1003;15950;51.112;6.966;2023-04-15T15:15:44;002;001;
26720;PMS1003;15950;51.112;6.966;2023-04-15T15:18:44;002;002;
26720;PMS1003;15950;51.112;6.966;2023-04-15T15:21:44;001;001;
26720;PMS1003;15950;51.112;6.966;2023-04-15T15:24:44;003;002;
26720;PMS1003;15950;51.112;6.966;2023-04-15T15:27:44;002;002;
26720;PMS1003;15950;51.112;6.966;2023-04-15T15:30:44;003;002;
26720;PMS1003;15950;51.112;6.966;2023-04-15T15:33:44;004;003;
26720;PMS1003;15950;51.112;6.966;2023-04-15T15:36:44;003;002;
26720;PMS1003;15950;51.112;6.966;2023-04-15T15:39:44;001;001;
26720;PMS1003;15950;51.112;6.966;2023-04-15T15:42:44;000;000;
26720;PMS1003;15950;51.112;6.966;2023-04-15T15:45:44;000;000;
26720;PMS1003;15950;51.112;6.966;2023-04-15T15:48:44;003;002;
26720;PMS1003;15950;51.112;6.966;2023-04-15T15:51:44;002;001;
26720;PMS1003;15950;51.112;6.966;2023-04-15T15:54:44;002;002;
26720;PMS1003;15950;51.112;6.966;2023-04-15T15:57:44;000;000;
26720;PMS1003;15950;51.112;6.966;2023-04-15T16:00:44;002;001;
26720;PMS1003;15950;51.112;6.966;2023-04-15T16:03:44;000;000;
26720;PMS1003;15950;51.112;6.966;2023-04-15T16:06:44;000;000;
26720;PMS1003;15950;51.112;6.966;2023-04-15T16:09:44;002;001;
26720;PMS1003;15950;51.112;6.966;2023-04-15T16:12:44;002;001;
26720;PMS1003;15950;51.112;6.966;2023-04-15T16:15:44;000;000;
26720;PMS1003;15950;51.112;6.966;2023-04-15T16:18:44;000;000;
26720;PMS1003;15950;51.112;6.966;2023-04-15T16:21:44;000;000;
26720;PMS1003;15950;51.112;6.966;2023-04-15T16:24:44;000;000;
26720;PMS1003;15950;51.112;6.966;2023-04-15T16:27:44;002;001;
26720;PMS1003;15950;51.112;6.966;2023-04-15T16:30:44;002;002;
26720;PMS1003;15950;51.112;6.966;2023-04-15T16:33:44;003;002;
26720;PMS1003;15950;51.112;6.966;2023-04-15T16:36:44;002;001;
26720;PMS1003;15950;51.112;6.966;2023-04-15T16:39:44;001;001;
26720;PMS1003;15950;51.112;6.966;2023-04-15T16:42:44;005;003;
26720;PMS1003;15950;51.112;6.966;2023-04-15T16:45:44;002;002;
26720;PMS1003;15950;51.112;6.966;2023-04-15T16:48:44;003;002;
26720;PMS1003;15950;51.112;6.966;2023-04-15T16:51:44;004;003;
26720;PMS1003;15950;51.112;6.966;2023-04-15T16:54:44;002;001;
26720;PMS1003;15950;51.112;6.966;2023-04-15T16:57:44;003;002;
26720;PMS1003;15950;51.112;6.966;2023-04-15T17:00:44;003;002;
26720;PMS1003;15950;51.112;6.966;2023-04-15T17:03:44;002;001;
26720;PMS1003;15950;51.112;6.966;2023-04-15T17:06:44;003;002;
26720;PMS1003;15950;51.112;6.966;2023-04-15T17:09:44;005;003;
26720;PMS1003;15950;51.112;6.966;2023-04-15T17:12:44;002;001;
26720;PMS1003;15950;51.112;6.966;2023-04-15T17:15:44;003;002;
26720;PMS1003;15950;51.112;6.966;2023-04-15T17:18:44;004;004;
26720;PMS1003;15950;51.112;6.966;2023-04-15T17:21:44;006;004;
26720;PMS1003;15950;51.112;6.966;2023-04-15T17:24:44;005;003;
26720;PMS1003;15950;51.112;6.966;2023-04-15T17:27:44;007;005;
26720;PMS1003;15950;51.112;6.966;2023-04-15T17:30:44;007;005;
26720;PMS1003;15950;51.112;6.966;2023-04-15T17:33:44;006;006;
26720;PMS1003;15950;51.112;6.966;2023-04-15T17:36:44;010;008;
26720;PMS1003;15950;51.112;6.966;2023-04-15T17:39:44;006;005;
26720;PMS1003;15950;51.112;6.966;2023-04-15T17:42:44;004;003;
26720;PMS1003;15950;51.112;6.966;2023-04-15T17:45:44;003;003;
26720;PMS1003;15950;51.112;6.966;2023-04-15T17:48:44;007;005;
26720;PMS1003;15950;51.112;6.966;2023-04-15T17:51:44;007;006;
26720;PMS1003;15950;51.112;6.966;2023-04-15T17:54:44;006;004;
26720;PMS1003;15950;51.112;6.966;2023-04-15T17:57:44;006;004;
26720;PMS1003;15950;51.112;6.966;2023-04-15T18:00:45;005;003;
26720;PMS1003;15950;51.112;6.966;2023-04-15T18:03:44;005;005;
26720;PMS1003;15950;51.112;6.966;2023-04-15T18:06:44;003;002;
26720;PMS1003;15950;51.112;6.966;2023-04-15T18:09:44;006;005;
26720;PMS1003;15950;51.112;6.966;2023-04-15T18:12:44;008;007;
26720;PMS1003;15950;51.112;6.966;2023-04-15T18:15:44;009;008;
26720;PMS1003;15950;51.112;6.966;2023-04-15T18:18:44;013;009;
26720;PMS1003;15950;51.112;6.966;2023-04-15T18:21:44;010;007;
26720;PMS1003;15950;51.112;6.966;2023-04-15T18:24:44;008;006;
26720;PMS1003;15950;51.112;6.966;2023-04-15T18:27:44;010;007;
26720;PMS1003;15950;51.112;6.966;2023-04-15T18:30:44;012;008;
26720;PMS1003;15950;51.112;6.966;2023-04-15T18:33:44;011;008;
26720;PMS1003;15950;51.112;6.966;2023-04-15T18:36:44;014;010;
26720;PMS1003;15950;51.112;6.966;2023-04-15T18:39:44;013;009;
26720;PMS1003;15950;51.112;6.966;2023-04-15T18:42:44;007;005;
26720;PMS1003;15950;51.112;6.966;2023-04-15T18:45:44;009;006;
26720;PMS1003;15950;51.112;6.966;2023-04-15T18:48:45;010;007;
26720;PMS1003;15950;51.112;6.966;2023-04-15T18:51:44;009;006;
26720;PMS1003;15950;51.112;6.966;2023-04-15T18:54:44;009;007;
26720;PMS1003;15950;51.112;6.966;2023-04-15T18:57:44;012;008;
26720;PMS1003;15950;51.112;6.966;2023-04-15T19:00:44;013;010;
26720;PMS1003;15950;51.112;6.966;2023-04-15T19:03:44;009;006;
26720;PMS1003;15950;51.112;6.966;2023-04-15T19:06:45;010;007;
26720;PMS1003;15950;51.112;6.966;2023-04-15T19:09:44;008;006;
26720;PMS1003;15950;51.112;6.966;2023-04-15T19:12:44;011;009;
26720;PMS1003;15950;51.112;6.966;2023-04-15T19:15:44;013;009;
26720;PMS1003;15950;51.112;6.966;2023-04-15T19:18:44;014;010;
26720;PMS1003;15950;51.112;6.966;2023-04-15T19:21:44;014;011;
26720;PMS1003;15950;51.112;6.966;2023-04-15T19:24:44;014;010;
26720;PMS1003;15950;51.112;6.966;2023-04-15T19:27:44;011;008;
26720;PMS1003;15950;51.112;6.966;2023-04-15T19:30:44;012;008;
26720;PMS1003;15950;51.112;6.966;2023-04-15T19:33:44;011;008;
26720;PMS1003;15950;51.112;6.966;2023-04-15T19:36:44;011;009;
26720;PMS1003;15950;51.112;6.966;2023-04-15T19:39:44;011;009;
26720;PMS1003;15950;51.112;6.966;2023-04-15T19:42:44;017;012;